Time;durP1;ratioP1;P1;durP2;ratioP2;P2;SDS_P1;SDS_P2;PMS_P1;PMS_P2;Temp;Humidity;BMP_temperature;BMP_pressure;BME280_temperature;BME280_humidity;BME280_pressure;Samples;Min_cycle;Max_cycle;Signal;HPM_P1;HPM_P2
2023/09/16 00:01:39;;;;;;;;;;;;;;;18.65;49.46;101386.50;4961318;28;125621;-77
2023/09/16 00:04:08;;;;;;;;;;;;;;;18.63;49.33;101383.06;4967179;28;114883;-78
2023/09/16 00:06:35;;;;;;;;;;;;;;;18.61;49.50;101379.63;4967220;28;114773;-78
2023/09/16 00:09:03;;;;;;;;;;;;;;;18.58;49.44;101374.47;4972532;28;124362;-76
2023/09/16 00:11:30;;;;;;;;;;;;;;;18.57;49.29;101372.75;4972081;28;123939;-76
2023/09/16 00:13:58;;;;;;;;;;;;;;;18.55;49.42;101367.50;4954319;28;114486;-76
2023/09/16 00:16:24;;;;;;;;;;;;;;;18.53;49.44;101371.25;4958296;28;113691;-75
2023/09/16 00:18:51;;;;;;;;;;;;;;;18.51;49.34;101368.69;4963771;28;125549;-78
2023/09/16 00:21:20;;;;;;;;;;;;;;;18.49;49.40;101365.25;4958037;28;123597;-76
2023/09/16 00:23:47;;;;;;;;;;;;;;;18.48;49.53;101369.75;4982220;28;113800;-77
2023/09/16 00:26:15;;;;;;;;;;;;;;;18.46;49.54;101360.97;4969746;28;114499;-78
2023/09/16 00:28:46;;;;;;;;;;;;;;;18.45;49.41;101367.28;4959161;28;124440;-78
2023/09/16 00:31:14;;;;;;;;;;;;;;;18.45;49.60;101372.66;4972842;28;123122;-76
2023/09/16 00:33:41;;;;;;;;;;;;;;;18.44;49.65;101368.25;4967839;28;112969;-77
2023/09/16 00:36:08;;;;;;;;;;;;;;;18.44;49.69;101368.25;4969811;28;114057;-78
2023/09/16 00:38:35;;;;;;;;;;;;;;;18.44;49.69;101370.94;4968800;28;124265;-76
2023/09/16 00:41:03;;;;;;;;;;;;;;;18.44;49.70;101367.38;4966280;28;124327;-78
2023/09/16 00:43:30;;;;;;;;;;;;;;;18.44;49.68;101368.25;4972420;28;115532;-76
2023/09/16 00:45:57;;;;;;;;;;;;;;;18.44;49.62;101368.25;4966830;28;115731;-75
2023/09/16 00:48:24;;;;;;;;;;;;;;;18.42;49.73;101370.19;4968719;28;125214;-76
2023/09/16 00:50:51;;;;;;;;;;;;;;;18.42;49.71;101364.84;4967058;28;125330;-78
2023/09/16 00:53:19;;;;;;;;;;;;;;;18.43;49.62;101366.53;4963573;28;114729;-77
2023/09/16 00:55:48;;;;;;;;;;;;;;;18.43;49.75;101374.56;4969123;28;113949;-77
2023/09/16 00:58:17;;;;;;;;;;;;;;;18.44;49.81;101364.69;4965213;28;123186;-75
2023/09/16 01:00:45;;;;;;;;;;;;;;;18.43;49.79;101361.16;4958883;28;124968;-77
2023/09/16 01:03:13;;;;;;;;;;;;;;;18.45;49.75;101363.75;4968585;28;113438;-78
2023/09/16 01:05:41;;;;;;;;;;;;;;;18.44;49.72;101368.25;4966992;28;113920;-78
2023/09/16 01:08:10;;;;;;;;;;;;;;;18.45;49.67;101367.28;4968444;28;125151;-76
2023/09/16 01:10:40;;;;;;;;;;;;;;;18.44;49.79;101362.91;4966814;28;124432;-78
2023/09/16 01:13:08;;;;;;;;;;;;;;;18.44;49.80;101357.53;4964102;28;114040;-78
2023/09/16 01:15:41;;;;;;;;;;;;;;;18.43;49.81;101355.81;4968561;28;114023;-77
2023/09/16 01:18:27;;;;;;;;;;;;;;;18.43;49.94;101361.16;4962863;28;124528;-77
2023/09/16 01:20:56;;;;;;;;;;;;;;;18.42;49.57;101359.47;4961971;28;123348;-78
2023/09/16 01:23:23;;;;;;;;;;;;;;;18.39;49.77;101346.25;4968811;28;114359;-78
2023/09/16 01:25:50;;;;;;;;;;;;;;;18.38;49.79;101341.84;4963634;28;113985;-78
2023/09/16 01:28:17;;;;;;;;;;;;;;;18.37;49.67;101350.03;4960762;28;124932;-77
2023/09/16 01:30:47;;;;;;;;;;;;;;;18.34;49.80;101343.03;4958328;28;124359;-77
2023/09/16 01:33:22;;;;;;;;;;;;;;;18.31;49.83;101345.94;4964742;28;114413;-78
2023/09/16 01:35:53;;;;;;;;;;;;;;;18.29;49.89;101337.16;4951943;28;115106;-77
2023/09/16 01:38:22;;;;;;;;;;;;;;;18.26;49.84;101337.34;4964275;28;124501;-77
2023/09/16 01:40:51;;;;;;;;;;;;;;;18.25;50.04;101341.00;4964161;28;125265;-77
2023/09/16 01:43:18;;;;;;;;;;;;;;;18.23;49.69;101334.88;4965363;28;114751;-77
2023/09/16 01:45:45;;;;;;;;;;;;;;;18.21;49.86;101336.81;4966249;28;114059;-77
2023/09/16 01:48:16;;;;;;;;;;;;;;;18.18;49.89;101334.38;4966819;28;125637;-78
2023/09/16 01:50:44;;;;;;;;;;;;;;;18.15;49.75;101323.84;4966728;28;124756;-77
2023/09/16 01:53:11;;;;;;;;;;;;;;;18.13;49.83;101336.50;4970992;28;114483;-77
2023/09/16 01:55:42;;;;;;;;;;;;;;;18.08;49.84;101335.00;4972458;28;114165;-77
2023/09/16 01:58:09;;;;;;;;;;;;;;;18.05;50.00;101329.84;4968943;28;125488;-77
2023/09/16 02:00:36;;;;;;;;;;;;;;;18.04;50.02;101337.97;4958592;28;124864;-77
2023/09/16 02:03:03;;;;;;;;;;;;;;;18.01;50.04;101333.69;4970256;28;113373;-77
2023/09/16 02:05:30;;;;;;;;;;;;;;;18.00;50.09;101334.66;4974483;28;113237;-78
2023/09/16 02:07:58;;;;;;;;;;;;;;;17.98;49.89;101328.53;4957021;28;124820;-78
2023/09/16 02:10:25;;;;;;;;;;;;;;;17.98;50.10;101338.41;4965235;28;123611;-77
2023/09/16 02:12:52;;;;;;;;;;;;;;;17.96;49.97;101335.81;4972479;28;114996;-78
2023/09/16 02:15:20;;;;;;;;;;;;;;;17.94;49.96;101332.38;4980182;28;113594;-78
2023/09/16 02:17:47;;;;;;;;;;;;;;;17.91;50.08;101332.59;4972845;28;124513;-78
2023/09/16 02:20:14;;;;;;;;;;;;;;;17.90;50.13;101341.63;4959561;28;124793;-78
2023/09/16 02:22:44;;;;;;;;;;;;;;;17.88;50.02;101338.19;4969254;28;116534;-77
2023/09/16 02:25:11;;;;;;;;;;;;;;;17.87;49.96;101341.81;4966279;28;112926;-78
2023/09/16 02:27:41;;;;;;;;;;;;;;;17.85;50.26;101338.38;4970134;28;124961;-77
2023/09/16 02:30:08;;;;;;;;;;;;;;;17.84;50.05;101336.66;4968587;28;122954;-77
2023/09/16 02:32:35;;;;;;;;;;;;;;;17.84;50.14;101336.66;4959004;28;115751;-78
2023/09/16 02:35:03;;;;;;;;;;;;;;;17.81;50.22;101331.47;4962059;28;112967;-77
2023/09/16 02:37:30;;;;;;;;;;;;;;;17.78;50.10;101331.69;4964778;28;125073;-78
2023/09/16 02:39:57;;;;;;;;;;;;;;;17.76;50.03;101323.75;4962337;28;124619;-78
2023/09/16 02:42:24;;;;;;;;;;;;;;;17.74;50.04;101330.16;4968244;28;116151;-77
2023/09/16 02:44:51;;;;;;;;;;;;;;;17.70;50.08;101325.00;4968073;28;115087;-78
2023/09/16 02:47:20;;;;;;;;;;;;;;;17.67;50.21;101319.88;4980357;28;122789;-78
2023/09/16 02:49:48;;;;;;;;;;;;;;;17.66;50.10;101312.78;4966451;28;123390;-78
2023/09/16 02:52:15;;;;;;;;;;;;;;;17.64;50.08;101314.72;4971369;28;114427;-78
2023/09/16 02:54:42;;;;;;;;;;;;;;;17.61;50.08;101306.91;4975994;28;114106;-78
2023/09/16 02:57:10;;;;;;;;;;;;;;;17.59;50.29;101307.94;4969228;28;122336;-79
2023/09/16 02:59:37;;;;;;;;;;;;;;;17.56;50.17;101310.84;4964393;28;125007;-77
2023/09/16 03:02:04;;;;;;;;;;;;;;;17.53;50.26;101309.22;4968747;28;116381;-77
2023/09/16 03:04:32;;;;;;;;;;;;;;;17.52;50.21;101320.91;4957897;28;113370;-77
2023/09/16 03:06:59;;;;;;;;;;;;;;;17.50;50.23;101318.34;4968273;28;125847;-78
2023/09/16 03:09:26;;;;;;;;;;;;;;;17.49;50.24;101326.47;4967155;28;124663;-78
2023/09/16 03:11:53;;;;;;;;;;;;;;;17.48;50.31;101322.09;4954185;28;114472;-78
2023/09/16 03:14:20;;;;;;;;;;;;;;;17.48;50.46;101316.72;4967441;28;115440;-77
2023/09/16 03:16:48;;;;;;;;;;;;;;;17.46;50.30;101315.94;4962497;28;125006;-77
2023/09/16 03:19:16;;;;;;;;;;;;;;;17.47;50.36;101312.31;4968042;28;123995;-77
2023/09/16 03:21:44;;;;;;;;;;;;;;;17.47;50.45;101306.97;4939764;28;113041;-78
2023/09/16 03:24:11;;;;;;;;;;;;;;;17.47;50.39;101306.97;4967764;28;113987;-78
2023/09/16 03:26:38;;;;;;;;;;;;;;;17.46;50.43;101311.47;4953309;28;125140;-77
2023/09/16 03:29:05;;;;;;;;;;;;;;;17.46;50.54;101305.22;4956494;28;126182;-77
2023/09/16 03:31:32;;;;;;;;;;;;;;;17.45;50.38;101304.38;4965233;28;114569;-77
2023/09/16 03:34:09;;;;;;;;;;;;;;;17.45;50.53;101306.22;4959293;28;113322;-78
2023/09/16 03:36:36;;;;;;;;;;;;;;;17.45;50.43;101303.53;4958736;28;123566;-78
2023/09/16 03:39:05;;;;;;;;;;;;;;;17.44;50.44;101291.09;4960880;28;97276;-78
2023/09/16 03:41:32;;;;;;;;;;;;;;;17.44;50.54;101296.44;4970951;28;116045;-78
2023/09/16 03:44:01;;;;;;;;;;;;;;;17.42;50.30;101290.34;4971012;28;114075;-77
2023/09/16 03:46:30;;;;;;;;;;;;;;;17.40;50.33;101289.59;4968579;28;124154;-78
2023/09/16 03:49:00;;;;;;;;;;;;;;;17.39;50.49;101288.72;4970434;28;123072;-77
2023/09/16 03:51:27;;;;;;;;;;;;;;;17.38;50.52;101284.31;4970668;28;113247;-78
2023/09/16 03:53:54;;;;;;;;;;;;;;;17.37;50.60;101289.81;4971189;28;113164;-77
2023/09/16 03:56:21;;;;;;;;;;;;;;;17.35;50.59;101286.34;4952589;28;122621;-77
2023/09/16 03:58:48;;;;;;;;;;;;;;;17.31;50.53;101286.56;4967029;28;124241;-78
2023/09/16 04:01:20;;;;;;;;;;;;;;;17.29;50.53;101277.78;4963081;28;114555;-78
2023/09/16 04:03:47;;;;;;;;;;;;;;;17.27;50.64;101287.72;4964899;28;114043;-78
2023/09/16 04:06:14;;;;;;;;;;;;;;;17.26;50.57;101283.31;4967316;28;125242;-78
2023/09/16 04:08:41;;;;;;;;;;;;;;;17.26;50.72;101282.47;4959075;28;123585;-78
2023/09/16 04:11:09;;;;;;;;;;;;;;;17.25;50.73;101281.63;4965380;28;113977;-78
2023/09/16 04:13:37;;;;;;;;;;;;;;;17.25;50.60;101286.97;4948131;28;113592;-77
2023/09/16 04:16:04;;;;;;;;;;;;;;;17.24;50.73;101285.25;4966191;28;124406;-78
2023/09/16 04:18:31;;;;;;;;;;;;;;;17.23;50.76;101288.88;4964504;28;123619;-78
2023/09/16 04:20:58;;;;;;;;;;;;;;;17.23;50.75;101291.56;4969462;28;112419;-78
2023/09/16 04:23:25;;;;;;;;;;;;;;;17.23;50.83;101288.88;4970075;28;113542;-77
2023/09/16 04:25:57;;;;;;;;;;;;;;;17.23;50.85;101296.06;4968398;28;124676;-78
2023/09/16 04:28:24;;;;;;;;;;;;;;;17.23;50.95;101288.88;4968936;28;125536;-78
2023/09/16 04:30:52;;;;;;;;;;;;;;;17.22;50.76;101300.56;4962704;28;115414;-78
2023/09/16 04:33:21;;;;;;;;;;;;;;;17.23;50.89;101294.22;4960403;28;113662;-77
2023/09/16 04:35:49;;;;;;;;;;;;;;;17.22;50.73;101287.16;4960181;28;124054;-77
2023/09/16 04:38:18;;;;;;;;;;;;;;;17.22;50.81;101292.53;4966469;28;125184;-77
2023/09/16 04:40:47;;;;;;;;;;;;;;;17.22;50.81;101281.81;4945466;28;115846;-77
2023/09/16 04:43:15;;;;;;;;;;;;;;;17.21;50.82;101285.44;4970053;28;114321;-78
2023/09/16 04:45:49;;;;;;;;;;;;;;;17.21;50.88;101274.72;4967606;28;125849;-77
2023/09/16 04:48:27;;;;;;;;;;;;;;;17.22;50.95;101276.47;4969599;28;124170;-77
2023/09/16 04:50:55;;;;;;;;;;;;;;;17.21;50.87;101269.38;4959815;28;115678;-76
2023/09/16 04:53:21;;;;;;;;;;;;;;;17.21;50.83;101274.72;4970005;28;115122;-77
2023/09/16 04:55:48;;;;;;;;;;;;;;;17.22;50.74;101272.94;4966212;28;123767;-77
2023/09/16 04:58:15;;;;;;;;;;;;;;;17.22;50.95;101271.09;4963080;28;124883;-78
2023/09/16 05:00:42;;;;;;;;;;;;;;;17.21;50.87;101269.38;4965758;28;114564;-78
2023/09/16 05:03:09;;;;;;;;;;;;;;;17.20;50.80;101266.84;4983580;28;114138;-77
2023/09/16 05:05:37;;;;;;;;;;;;;;;17.20;50.83;101278.38;4958386;28;123350;-78
2023/09/16 05:08:05;;;;;;;;;;;;;;;17.19;50.83;101278.47;4952798;28;124838;-78
2023/09/16 05:10:32;;;;;;;;;;;;;;;17.19;50.96;101275.81;4969929;28;114631;-78
2023/09/16 05:12:59;;;;;;;;;;;;;;;17.18;50.99;101274.06;4968294;28;114538;-78
2023/09/16 05:15:28;;;;;;;;;;;;;;;17.17;51.07;101278.56;4948578;28;124324;-78
2023/09/16 05:17:55;;;;;;;;;;;;;;;17.17;51.18;101283.09;4952653;28;124334;-77
2023/09/16 05:20:22;;;;;;;;;;;;;;;17.16;50.89;101284.91;4964905;28;115583;-78
2023/09/16 05:22:49;;;;;;;;;;;;;;;17.17;50.90;101285.75;4955664;28;113056;-78
2023/09/16 05:25:21;;;;;;;;;;;;;;;17.16;51.06;101287.59;4974163;28;125220;-77
2023/09/16 05:27:48;;;;;;;;;;;;;;;17.16;50.99;101292.94;4952585;28;125162;-78
2023/09/16 05:30:15;;;;;;;;;;;;;;;17.16;51.02;101279.56;4965901;28;115825;-78
2023/09/16 05:32:44;;;;;;;;;;;;;;;17.17;51.10;101283.94;4951324;28;112858;-78
2023/09/16 05:35:11;;;;;;;;;;;;;;;17.17;51.04;101281.25;4952996;28;125014;-78
2023/09/16 05:37:39;;;;;;;;;;;;;;;17.17;51.17;101278.56;4965381;28;123859;-78
2023/09/16 05:40:07;;;;;;;;;;;;;;;17.17;51.20;101275.91;4967037;28;115734;-78
2023/09/16 05:42:35;;;;;;;;;;;;;;;17.18;51.09;101283.00;4966714;28;116020;-78
2023/09/16 05:45:02;;;;;;;;;;;;;;;17.19;51.14;101284.69;4967509;28;125387;-78
2023/09/16 05:47:31;;;;;;;;;;;;;;;17.20;51.17;101283.75;4964797;28;125408;-78
2023/09/16 05:49:59;;;;;;;;;;;;;;;17.22;51.23;101281.81;4959302;28;115281;-78
2023/09/16 05:52:26;;;;;;;;;;;;;;;17.24;51.17;101279.91;4945017;28;114866;-78
2023/09/16 05:54:53;;;;;;;;;;;;;;;17.26;51.32;101294.03;4972177;28;123462;-78
2023/09/16 05:57:21;;;;;;;;;;;;;;;17.26;51.19;101280.66;4955143;28;123352;-77
2023/09/16 05:59:48;;;;;;;;;;;;;;;17.30;51.20;101290.19;4963692;28;113532;-78
2023/09/16 06:02:16;;;;;;;;;;;;;;;17.32;51.19;101288.25;4976608;28;114748;-78
2023/09/16 06:04:43;;;;;;;;;;;;;;;17.35;51.22;101286.34;4958211;28;124947;-78
2023/09/16 06:07:11;;;;;;;;;;;;;;;17.36;51.42;101277.38;4962970;28;123332;-78
2023/09/16 06:09:38;;;;;;;;;;;;;;;17.39;51.30;101287.88;4969883;28;114322;-77
2023/09/16 06:12:05;;;;;;;;;;;;;;;17.41;51.43;101280.59;4967340;28;115811;-78
2023/09/16 06:14:32;;;;;;;;;;;;;;;17.45;51.59;101284.78;4959511;28;124763;-79
2023/09/16 06:16:59;;;;;;;;;;;;;;;17.51;51.71;101287.91;4965124;28;125049;-78
2023/09/16 06:19:27;;;;;;;;;;;;;;;17.60;51.61;101286.44;4972737;28;113594;-78
2023/09/16 06:21:55;;;;;;;;;;;;;;;17.71;51.79;101291.06;4964882;28;112694;-78
2023/09/16 06:24:23;;;;;;;;;;;;;;;17.84;51.90;101291.09;4961395;28;123831;-78
2023/09/16 06:26:51;;;;;;;;;;;;;;;18.00;51.99;101294.44;4955814;28;124230;-78
2023/09/16 06:29:18;;;;;;;;;;;;;;;18.16;52.12;101294.25;4955143;28;115041;-78
2023/09/16 06:31:45;;;;;;;;;;;;;;;18.34;52.30;101297.44;4960714;28;113795;-78
2023/09/16 06:34:14;;;;;;;;;;;;;;;18.53;52.30;101301.50;4961533;28;125640;-78
2023/09/16 06:36:41;;;;;;;;;;;;;;;18.68;52.10;101297.72;4966618;28;125073;-77
2023/09/16 06:39:11;;;;;;;;;;;;;;;18.83;52.11;101298.47;4963097;28;114603;-78
2023/09/16 06:41:38;;;;;;;;;;;;;;;18.98;52.22;101296.50;4959139;28;112952;-78
2023/09/16 06:44:14;;;;;;;;;;;;;;;19.11;52.02;101294.63;4962361;28;123896;-79
2023/09/16 06:46:43;;;;;;;;;;;;;;;19.24;52.20;101295.44;4942308;28;124826;-77
2023/09/16 06:49:10;;;;;;;;;;;;;;;19.39;52.27;101295.25;4961620;28;114395;-77
2023/09/16 06:51:37;;;;;;;;;;;;;;;19.53;52.11;101297.75;4957899;28;114003;-77
2023/09/16 06:54:04;;;;;;;;;;;;;;;19.70;52.16;101298.31;4964070;28;123153;-77
2023/09/16 06:56:31;;;;;;;;;;;;;;;19.85;52.13;101297.16;4962143;28;123798;-77
2023/09/16 06:59:00;;;;;;;;;;;;;;;20.01;52.19;101291.47;4957262;28;117203;-77
2023/09/16 07:01:27;;;;;;;;;;;;;;;20.18;52.13;101299.06;4966925;28;113811;-77
2023/09/16 07:03:54;;;;;;;;;;;;;;;20.32;51.95;101302.50;4960228;28;123770;-77
2023/09/16 07:06:22;;;;;;;;;;;;;;;20.42;51.97;101301.66;4969576;28;124010;-77
2023/09/16 07:08:49;;;;;;;;;;;;;;;20.57;51.93;101304.13;4959607;28;114771;-77
2023/09/16 07:11:17;;;;;;;;;;;;;;;20.70;52.01;101299.47;4962630;28;113070;-77
2023/09/16 07:13:44;;;;;;;;;;;;;;;20.82;51.79;101302.16;4960845;28;124272;-77
2023/09/16 07:16:12;;;;;;;;;;;;;;;20.92;51.83;101297.72;4964923;28;124987;-77
2023/09/16 07:18:39;;;;;;;;;;;;;;;21.02;51.83;101298.72;4967845;28;115130;-77
2023/09/16 07:21:08;;;;;;;;;;;;;;;21.13;51.96;101295.94;4969073;28;113571;-77
2023/09/16 07:23:35;;;;;;;;;;;;;;;21.27;51.84;101302.06;4972849;28;123873;-77
2023/09/16 07:26:03;;;;;;;;;;;;;;;21.38;51.90;101293.94;4970599;28;124589;-77
2023/09/16 07:28:32;;;;;;;;;;;;;;;21.49;51.83;101299.31;4974504;28;114112;-77
2023/09/16 07:31:01;;;;;;;;;;;;;;;21.61;51.85;101300.13;4950491;28;113377;-77
2023/09/16 07:33:35;;;;;;;;;;;;;;;21.70;51.79;101293.94;4967530;28;123464;-77
2023/09/16 07:36:02;;;;;;;;;;;;;;;21.82;51.84;101297.44;4964532;28;125132;-77
2023/09/16 07:38:29;;;;;;;;;;;;;;;21.94;51.72;101296.38;4969957;28;114135;-77
2023/09/16 07:40:56;;;;;;;;;;;;;;;22.06;51.78;101293.63;4948837;28;114825;-76
2023/09/16 07:43:23;;;;;;;;;;;;;;;22.19;51.82;101299.66;4962275;28;124291;-77
2023/09/16 07:45:50;;;;;;;;;;;;;;;22.32;51.88;101305.72;4966772;28;125264;-78
2023/09/16 07:48:17;;;;;;;;;;;;;;;22.48;51.84;101315.16;4968726;28;114257;-78
2023/09/16 07:50:44;;;;;;;;;;;;;;;22.61;51.80;101310.38;4965438;28;113958;-76
2023/09/16 07:53:11;;;;;;;;;;;;;;;22.71;51.88;101305.84;4975052;28;125254;-76
2023/09/16 07:55:39;;;;;;;;;;;;;;;22.83;51.66;101313.84;4965594;28;123391;-76
2023/09/16 07:58:06;;;;;;;;;;;;;;;22.93;51.59;101304.78;4968520;28;115072;-75
2023/09/16 08:00:33;;;;;;;;;;;;;;;23.02;51.68;101303.13;4969196;28;113850;-77
2023/09/16 08:03:00;;;;;;;;;;;;;;;23.13;51.63;101311.13;4952795;28;124949;-76
2023/09/16 08:05:27;;;;;;;;;;;;;;;23.27;51.54;101317.13;4954494;28;124752;-76
2023/09/16 08:07:54;;;;;;;;;;;;;;;23.39;51.50;101317.84;4957329;28;115127;-76
2023/09/16 08:10:21;;;;;;;;;;;;;;;23.51;51.58;101309.47;4963131;28;114630;-75
2023/09/16 08:12:48;;;;;;;;;;;;;;;23.63;51.56;101317.44;4961345;28;124569;-76
2023/09/16 08:15:15;;;;;;;;;;;;;;;23.73;51.54;101317.41;4962333;28;125125;-76
2023/09/16 08:17:42;;;;;;;;;;;;;;;23.82;51.58;101314.72;4968047;28;114665;-75
2023/09/16 08:20:09;;;;;;;;;;;;;;;23.96;51.37;101323.41;4963248;28;114017;-76
2023/09/16 08:22:36;;;;;;;;;;;;;;;24.04;51.52;101326.25;4964834;28;124900;-76
2023/09/16 08:25:04;;;;;;;;;;;;;;;24.13;51.35;101319.97;4953023;28;123264;-76
2023/09/16 08:27:31;;;;;;;;;;;;;;;24.22;51.29;101318.22;4966647;28;115227;-75
2023/09/16 08:29:59;;;;;;;;;;;;;;;24.27;50.93;101321.34;4953488;28;114183;-74
2023/09/16 08:32:28;;;;;;;;;;;;;;;24.32;51.20;101323.59;4964015;28;123760;-75
2023/09/16 08:34:56;;;;;;;;;;;;;;;24.36;51.14;101319.63;4982347;28;124938;-75
2023/09/16 08:37:23;;;;;;;;;;;;;;;24.41;50.98;101323.59;4958163;28;114852;-75
2023/09/16 08:39:50;;;;;;;;;;;;;;;24.45;51.09;101325.00;4957565;28;112846;-75
2023/09/16 08:42:26;;;;;;;;;;;;;;;24.54;50.86;101334.09;4969242;28;124425;-75
2023/09/16 08:44:53;;;;;;;;;;;;;;;24.63;51.14;101327.78;4960390;28;124263;-75
2023/09/16 08:47:27;;;;;;;;;;;;;;;24.71;50.84;101328.91;4961592;28;114221;-75
2023/09/16 08:49:59;;;;;;;;;;;;;;;24.78;50.77;101330.84;4956444;28;114421;-75
2023/09/16 08:52:32;;;;;;;;;;;;;;;24.85;50.90;101320.28;4964081;28;124248;-75
2023/09/16 08:54:59;;;;;;;;;;;;;;;24.91;50.76;101329.66;4967770;28;123793;-75
2023/09/16 08:57:26;;;;;;;;;;;;;;;24.97;50.77;101332.63;4967279;28;115898;-75
2023/09/16 08:59:54;;;;;;;;;;;;;;;25.05;50.70;101327.31;4962046;28;113557;-75
2023/09/16 09:02:21;;;;;;;;;;;;;;;25.12;50.80;101332.09;4967659;28;124111;-75
2023/09/16 09:04:48;;;;;;;;;;;;;;;25.22;50.80;101327.47;4960382;28;124189;-75
2023/09/16 09:07:15;;;;;;;;;;;;;;;25.31;50.83;101323.88;4965590;28;115068;-75
2023/09/16 09:09:42;;;;;;;;;;;;;;;25.40;50.89;101325.66;4963889;28;113479;-76
2023/09/16 09:12:09;;;;;;;;;;;;;;;25.50;50.47;101327.44;4966561;28;124870;-75
2023/09/16 09:14:37;;;;;;;;;;;;;;;25.57;50.29;101320.41;4962757;28;124220;-76
2023/09/16 09:17:06;;;;;;;;;;;;;;;25.65;50.66;101323.16;4968522;28;114619;-76
2023/09/16 09:19:33;;;;;;;;;;;;;;;25.73;50.51;101315.13;4963793;28;114163;-75
2023/09/16 09:22:01;;;;;;;;;;;;;;;25.75;50.10;101318.53;4961623;28;124263;-76
2023/09/16 09:24:28;;;;;;;;;;;;;;;25.77;50.44;101321.94;4960608;28;125329;-76
2023/09/16 09:26:55;;;;;;;;;;;;;;;25.81;50.47;101317.88;4955595;28;114252;-76
2023/09/16 09:29:22;;;;;;;;;;;;;;;25.88;50.06;101322.69;4959481;28;112789;-76
2023/09/16 09:31:49;;;;;;;;;;;;;;;25.91;49.74;101327.81;4960643;28;125434;-77
2023/09/16 09:34:16;;;;;;;;;;;;;;;25.95;49.71;101334.66;4958536;28;124223;-75
2023/09/16 09:36:46;;;;;;;;;;;;;;;26.00;49.95;101335.03;4953857;28;114437;-76
2023/09/16 09:39:14;;;;;;;;;;;;;;;26.08;49.94;101340.50;4976434;28;114249;-76
2023/09/16 09:41:42;;;;;;;;;;;;;;;26.16;49.94;101332.44;4958529;28;124062;-76
2023/09/16 09:44:10;;;;;;;;;;;;;;;26.26;49.95;101331.44;4965864;28;124958;-76
2023/09/16 09:46:37;;;;;;;;;;;;;;;26.36;49.97;101332.22;4963784;28;115508;-76
2023/09/16 09:49:04;;;;;;;;;;;;;;;26.44;49.67;101329.53;4957993;28;115406;-76
2023/09/16 09:51:31;;;;;;;;;;;;;;;26.51;49.91;101336.03;4963707;28;124317;-75
2023/09/16 09:53:58;;;;;;;;;;;;;;;26.58;49.69;101342.53;4969951;28;124686;-75
2023/09/16 09:56:25;;;;;;;;;;;;;;;26.66;49.88;101343.63;4968204;28;114836;-76
2023/09/16 09:58:52;;;;;;;;;;;;;;;26.72;49.72;101342.97;4969915;28;113816;-75
2023/09/16 10:01:21;;;;;;;;;;;;;;;26.78;49.64;101336.88;4965027;28;124177;-76
2023/09/16 10:03:48;;;;;;;;;;;;;;;26.86;49.57;101339.63;4958981;28;124534;-76
2023/09/16 10:06:17;;;;;;;;;;;;;;;26.94;49.97;101347.81;4955514;28;113175;-76
2023/09/16 10:08:44;;;;;;;;;;;;;;;27.02;49.24;101348.84;4961774;28;114036;-76
2023/09/16 10:11:11;;;;;;;;;;;;;;;27.06;49.35;101350.22;4956862;28;123827;-76
2023/09/16 10:13:38;;;;;;;;;;;;;;;27.10;49.36;101346.16;4963032;28;124039;-76
2023/09/16 10:16:05;;;;;;;;;;;;;;;27.16;49.46;101345.47;4964636;28;114749;-75
2023/09/16 10:18:33;;;;;;;;;;;;;;;27.20;49.51;101341.44;4945773;28;114559;-76
2023/09/16 10:21:01;;;;;;;;;;;;;;;27.22;49.44;101339.41;4965031;28;123300;-76
2023/09/16 10:23:28;;;;;;;;;;;;;;;27.26;49.45;101335.34;4963620;28;124104;-76
2023/09/16 10:25:55;;;;;;;;;;;;;;;27.32;49.34;101340.13;4968373;28;115822;-76
2023/09/16 10:28:22;;;;;;;;;;;;;;;27.38;49.10;101338.59;4965520;28;113417;-76
2023/09/16 10:30:50;;;;;;;;;;;;;;;27.43;49.19;101340.84;4966793;28;123876;-76
2023/09/16 10:33:18;;;;;;;;;;;;;;;27.51;49.22;101338.13;4958663;28;124338;-76
2023/09/16 10:35:46;;;;;;;;;;;;;;;27.61;49.31;101337.94;4958662;28;115398;-76
2023/09/16 10:38:13;;;;;;;;;;;;;;;27.71;49.35;101334.06;4956609;28;114317;-75
2023/09/16 10:40:41;;;;;;;;;;;;;;;27.77;48.56;101327.91;4968237;28;124805;-76
2023/09/16 10:43:09;;;;;;;;;;;;;;;27.81;48.84;101327.59;4962744;28;123404;-76
2023/09/16 10:45:37;;;;;;;;;;;;;;;27.86;48.91;101330.63;4962134;28;113862;-76
2023/09/16 10:48:05;;;;;;;;;;;;;;;27.92;48.87;101324.56;4967251;28;114167;-76
2023/09/16 10:50:36;;;;;;;;;;;;;;;27.99;48.98;101320.13;4963394;28;123038;-76
2023/09/16 10:53:07;;;;;;;;;;;;;;;28.06;48.58;101315.66;4965105;28;124984;-76
2023/09/16 10:55:40;;;;;;;;;;;;;;;28.10;48.66;101317.00;4962689;28;114922;-75
2023/09/16 10:58:27;;;;;;;;;;;;;;;28.14;48.62;101318.41;4973291;28;112722;-76
2023/09/16 11:00:56;;;;;;;;;;;;;;;28.19;48.50;101315.13;4958490;28;124851;-76
2023/09/16 11:03:29;;;;;;;;;;;;;;;28.23;48.24;101315.66;4958836;28;124281;-76
2023/09/16 11:05:58;;;;;;;;;;;;;;;28.24;48.41;101312.75;4962637;28;115526;-76
2023/09/16 11:08:25;;;;;;;;;;;;;;;28.30;48.55;101311.22;4967705;28;114893;-77
2023/09/16 11:10:53;;;;;;;;;;;;;;;28.37;48.43;101311.34;4969523;28;124474;-76
2023/09/16 11:13:20;;;;;;;;;;;;;;;28.39;48.20;101303.84;4969382;28;124611;-76
2023/09/16 11:15:47;;;;;;;;;;;;;;;28.41;48.15;101304.53;4959916;28;114613;-76
2023/09/16 11:18:17;;;;;;;;;;;;;;;28.42;48.02;101309.78;4970814;28;113871;-76
2023/09/16 11:20:45;;;;;;;;;;;;;;;28.40;47.95;101300.94;4967964;28;124514;-77
2023/09/16 11:23:12;;;;;;;;;;;;;;;28.39;48.03;101304.72;4978673;28;124358;-77
2023/09/16 11:25:43;;;;;;;;;;;;;;;28.42;47.66;101309.78;4965101;28;114641;-77
2023/09/16 11:28:16;;;;;;;;;;;;;;;28.42;47.43;101307.06;4965743;28;115593;-78
2023/09/16 11:30:56;;;;;;;;;;;;;;;28.43;47.65;101306.06;4964859;28;124933;-77
2023/09/16 11:33:34;;;;;;;;;;;;;;;28.46;47.88;101294.81;4957793;28;125849;-77
2023/09/16 11:36:07;;;;;;;;;;;;;;;28.54;47.86;101308.44;4957605;28;114761;-78
2023/09/16 11:38:35;;;;;;;;;;;;;;;28.61;47.88;101296.81;4959659;28;114667;-77
2023/09/16 11:41:09;;;;;;;;;;;;;;;28.68;48.17;101292.38;4962044;28;124393;-77
2023/09/16 11:43:37;;;;;;;;;;;;;;;28.78;47.96;101292.13;4948187;28;126127;-76
2023/09/16 11:46:04;;;;;;;;;;;;;;;28.85;48.02;101293.97;4978030;28;115603;-76
2023/09/16 11:48:52;;;;;;;;;;;;;;;28.92;47.83;101289.50;4965800;28;112941;-75
2023/09/16 11:51:21;;;;;;;;;;;;;;;28.97;46.87;101290.84;4963951;28;125319;-76
2023/09/16 11:53:50;;;;;;;;;;;;;;;28.96;47.03;101283.72;4960526;28;124242;-77
2023/09/16 11:56:17;;;;;;;;;;;;;;;28.99;47.04;101294.25;4963840;28;114843;-77
2023/09/16 11:58:45;;;;;;;;;;;;;;;29.03;47.22;101284.69;4965060;28;113852;-76
2023/09/16 12:01:12;;;;;;;;;;;;;;;29.10;47.31;101291.09;4966092;28;124877;-76
2023/09/16 12:03:41;;;;;;;;;;;;;;;29.16;47.16;101284.97;4962681;28;124727;-77
2023/09/16 12:06:09;;;;;;;;;;;;;;;29.22;47.08;101288.88;4972956;28;115344;-76
2023/09/16 12:08:42;;;;;;;;;;;;;;;29.25;46.92;101283.91;4972110;28;115767;-77
2023/09/16 12:11:09;;;;;;;;;;;;;;;29.29;46.86;101285.22;4975914;28;124725;-77
2023/09/16 12:13:39;;;;;;;;;;;;;;;29.31;46.44;101276.88;4965480;28;126341;-76
2023/09/16 12:16:06;;;;;;;;;;;;;;;29.30;46.13;101281.44;4972390;28;114982;-76
2023/09/16 12:18:33;;;;;;;;;;;;;;;29.34;46.32;101281.09;4964532;28;115155;-76
2023/09/16 12:21:00;;;;;;;;;;;;;;;29.39;46.64;101273.22;4979848;28;125688;-77
2023/09/16 12:23:30;;;;;;;;;;;;;;;29.46;46.60;101274.16;4964215;28;124525;-76
2023/09/16 12:26:00;;;;;;;;;;;;;;;29.51;46.63;101277.19;4961376;28;113488;-76
2023/09/16 12:28:27;;;;;;;;;;;;;;;29.57;46.76;101278.34;4971524;28;114780;-77
2023/09/16 12:30:58;;;;;;;;;;;;;;;29.61;46.83;101272.34;4962528;28;122821;-77
2023/09/16 12:33:38;;;;;;;;;;;;;;;29.65;46.81;101273.66;4964597;28;124362;-77